Time;durP1;ratioP1;P1;durP2;ratioP2;P2;SDS_P1;SDS_P2;PMS_P1;PMS_P2;Temp;Humidity;BMP_temperature;BMP_pressure;BME280_temperature;BME280_humidity;BME280_pressure;Samples;Min_cycle;Max_cycle;Signal;HPM_P1;HPM_P2
2023/04/30 00:02:15;;;;;;;;;23.75;20.75;;;;;14.52;53.05;101332.53;5074985;28;45659;-76
2023/04/30 00:08:03;;;;;;;;;35.25;30.50;;;;;14.45;53.63;101328.69;5074655;28;45627;-78
2023/04/30 00:10:28;;;;;;;;;39.25;32.00;;;;;14.43;53.62;101338.50;5074781;27;46431;-78
2023/04/30 00:12:53;;;;;;;;;36.25;33.25;;;;;14.39;53.46;101330.97;5074790;27;45948;-78
2023/04/30 00:15:19;;;;;;;;;28.00;27.25;;;;;14.36;54.00;101339.88;5075460;27;45960;-77
2023/04/30 00:17:44;;;;;;;;;33.25;30.00;;;;;14.29;53.83;101329.00;5074945;27;45695;-77
2023/04/30 00:20:11;;;;;;;;;31.00;26.00;;;;;14.28;54.37;101326.47;5074896;27;46243;-76
2023/04/30 00:22:36;;;;;;;;;26.00;24.25;;;;;14.25;53.94;101324.06;5074294;27;45591;-78
2023/04/30 00:25:02;;;;;;;;;33.00;29.00;;;;;14.24;53.91;101333.75;5074751;27;45936;-76
2023/04/30 00:27:27;;;;;;;;;28.00;22.75;;;;;14.24;54.13;101333.75;5074464;27;45702;-77
2023/04/30 00:29:53;;;;;;;;;26.50;23.00;;;;;14.23;54.45;101329.44;5074550;27;46063;-77
2023/04/30 00:32:19;;;;;;;;;27.25;23.50;;;;;14.24;54.30;101330.28;5074732;27;45936;-77
2023/04/30 00:38:06;;;;;;;;;28.25;23.75;;;;;14.17;54.67;101326.41;5074266;28;46204;-77
2023/04/30 00:40:34;;;;;;;;;29.50;20.25;;;;;14.14;54.73;101321.41;5072877;28;45956;-77
2023/04/30 00:42:59;;;;;;;;;26.50;24.50;;;;;14.09;54.72;101316.44;5074453;27;46023;-77
2023/04/30 00:45:25;;;;;;;;;26.00;21.25;;;;;14.07;54.70;101314.88;5074705;28;45695;-80
2023/04/30 00:47:50;;;;;;;;;24.50;20.00;;;;;14.03;55.02;101316.06;5074024;27;46940;-78
2023/04/30 00:50:16;;;;;;;;;11.75;10.75;;;;;14.02;54.74;101314.38;5074187;27;46674;-78
2023/04/30 00:52:43;;;;;;;;;23.00;19.50;;;;;13.99;55.02;101307.53;5073845;27;45739;-78
2023/04/30 00:55:10;;;;;;;;;25.75;21.00;;;;;13.99;54.84;101311.97;5074505;28;45927;-75
2023/04/30 00:57:37;;;;;;;;;24.50;22.50;;;;;13.96;55.22;101310.41;5074097;27;45923;-77
2023/04/30 01:00:04;;;;;;;;;23.75;18.50;;;;;13.93;55.16;101297.44;5074122;27;46634;-77
2023/04/30 01:02:30;;;;;;;;;24.00;22.00;;;;;13.91;55.25;101296.75;5074080;28;45723;-75
2023/04/30 01:08:17;;;;;;;;;28.25;25.25;;;;;13.89;54.99;101301.28;5073814;28;45633;-76
2023/04/30 01:11:05;;;;;;;;;23.75;18.50;;;;;13.89;55.03;101303.91;5073858;28;45620;-79
2023/04/30 01:13:39;;;;;;;;;23.25;21.25;;;;;13.86;54.98;101296.25;5011203;28;45612;-77
2023/04/30 01:16:27;;;;;;;;;24.25;21.75;;;;;13.86;55.29;101301.50;5011365;28;45788;-78
2023/04/30 01:19:04;;;;;;;;;26.00;20.50;;;;;13.85;55.49;101297.19;5011058;28;46345;-77
2023/04/30 01:21:32;;;;;;;;;22.75;21.25;;;;;13.80;55.50;101288.78;5010434;28;46295;-77
2023/04/30 01:24:17;;;;;;;;;21.00;16.50;;;;;13.80;55.20;101296.69;5010689;28;45882;-78
2023/04/30 01:27:05;;;;;;;;;27.00;22.75;;;;;13.78;55.52;101293.31;5011199;28;45822;-78
2023/04/30 01:29:33;;;;;;;;;24.00;19.50;;;;;13.76;55.60;101290.81;5011060;28;45701;-78
2023/04/30 01:31:58;;;;;;;;;23.25;19.00;;;;;13.75;55.67;101283.03;5010898;28;46371;-78
2023/04/30 01:34:24;;;;;;;;;24.50;21.75;;;;;13.72;55.62;101283.22;5010063;28;45845;-78
2023/04/30 01:37:09;;;;;;;;;24.00;19.25;;;;;13.70;55.58;101285.16;5011188;28;45890;-77
2023/04/30 01:39:57;;;;;;;;;15.25;14.25;;;;;13.69;56.08;101286.09;5011012;28;45743;-78
2023/04/30 01:42:33;;;;;;;;;22.75;21.75;;;;;13.66;55.99;101278.41;5010821;28;45704;-78
2023/04/30 01:45:31;;;;;;;;;22.75;20.00;;;;;13.65;56.22;101287.28;5010852;28;46195;-77
2023/04/30 01:51:31;;;;;;;;;21.75;20.50;;;;;13.61;56.25;101283.16;5060144;28;46024;-79
2023/04/30 01:54:05;;;;;;;;;23.50;19.75;;;;;13.58;56.45;101281.63;5088897;27;47606;-77
2023/04/30 01:56:32;;;;;;;;;20.00;18.00;;;;;13.58;56.04;101281.63;5073210;27;45660;-76
2023/04/30 01:58:58;;;;;;;;;21.50;21.00;;;;;13.56;56.45;101285.31;5089062;27;45876;-79
2023/04/30 02:01:28;;;;;;;;;23.00;20.00;;;;;13.54;56.50;101288.06;5073067;27;45838;-78
2023/04/30 02:07:28;;;;;;;;;19.50;17.75;;;;;13.51;56.26;101292.69;5072706;28;45580;-77
2023/04/30 02:09:53;;;;;;;;;21.50;19.00;;;;;13.49;56.36;101286.72;5073239;27;45791;-78
2023/04/30 02:12:19;;;;;;;;;17.75;17.75;;;;;13.45;56.27;101278.19;5073064;27;45647;-77
2023/04/30 02:14:45;;;;;;;;;22.50;19.75;;;;;13.44;56.55;101285.22;5072885;28;45741;-78
2023/04/30 02:17:10;;;;;;;;;23.50;17.75;;;;;13.42;56.91;101286.31;5072928;28;45577;-78
2023/04/30 02:22:57;;;;;;;;;19.75;15.25;;;;;13.41;56.78;101290.72;5072472;28;46228;-77
2023/04/30 02:25:22;;;;;;;;;21.00;17.00;;;;;13.40;56.52;101293.47;5072775;27;45849;-78
2023/04/30 02:27:49;;;;;;;;;22.00;18.50;;;;;13.40;56.66;101296.09;5088511;27;45643;-78
2023/04/30 02:30:14;;;;;;;;;18.50;17.25;;;;;13.38;56.73;101288.34;5072956;27;45771;-78
2023/04/30 02:32:40;;;;;;;;;20.25;18.50;;;;;13.39;56.64;101294.41;5072598;28;46275;-78
2023/04/30 02:38:27;;;;;;;;;20.75;19.25;;;;;13.35;56.92;101290.31;5072588;28;45787;-77
2023/04/30 02:40:52;;;;;;;;;20.00;17.75;;;;;13.36;57.06;101284.97;5072585;27;45577;-78
2023/04/30 02:43:18;;;;;;;;;20.00;16.25;;;;;13.39;56.79;101302.31;5072724;27;45653;-78
2023/04/30 02:45:43;;;;;;;;;20.75;19.25;;;;;13.37;56.84;101297.19;5073094;27;45568;-78
2023/04/30 02:48:09;;;;;;;;;18.00;15.25;;;;;13.38;56.91;101293.59;5076221;27;45568;-78
2023/04/30 02:53:56;;;;;;;;;20.50;18.75;;;;;13.36;56.73;101295.50;5064318;28;46116;-77
2023/04/30 02:56:21;;;;;;;;;13.75;12.25;;;;;13.34;57.09;101294.75;5076088;27;46088;-77
2023/04/30 02:58:46;;;;;;;;;19.00;17.50;;;;;13.34;56.63;101293.91;5076411;27;45712;-78
2023/04/30 03:01:12;;;;;;;;;22.75;18.25;;;;;13.34;57.25;101294.75;5075997;28;45598;-78
2023/04/30 03:03:38;;;;;;;;;17.00;16.00;;;;;13.33;57.07;101295.69;5075919;27;46237;-77
2023/04/30 03:09:25;;;;;;;;;25.50;19.75;;;;;13.33;56.60;101287.78;5075850;28;45487;-78
2023/04/30 03:11:50;;;;;;;;;22.50;20.25;;;;;13.31;57.10;101292.34;5076018;27;45491;-78
2023/04/30 03:14:16;;;;;;;;;19.75;18.50;;;;;13.29;56.80;101288.97;5074188;28;46598;-78
2023/04/30 03:16:41;;;;;;;;;16.50;15.75;;;;;13.26;56.99;101281.31;5075796;27;46475;-81
2023/04/30 03:19:07;;;;;;;;;20.75;15.00;;;;;13.26;57.06;101283.09;5075986;27;45705;-77
2023/04/30 03:24:54;;;;;;;;;19.50;16.50;;;;;13.25;57.04;101282.25;5075641;28;45724;-78
2023/04/30 03:27:19;;;;;;;;;24.50;22.00;;;;;13.25;57.43;101278.78;5075704;27;45813;-75
2023/04/30 03:29:45;;;;;;;;;21.00;20.00;;;;;13.24;57.47;101280.56;5075995;27;46089;-79
2023/04/30 03:32:10;;;;;;;;;21.00;19.50;;;;;13.25;57.53;101286.69;5075779;28;45739;-78
2023/04/30 03:34:37;;;;;;;;;20.75;18.00;;;;;13.20;57.34;101280.91;5075300;28;45738;-79
2023/04/30 03:37:02;;;;;;;;;20.25;19.00;;;;;13.19;57.58;101287.09;5075415;27;45605;-78
2023/04/30 03:39:28;;;;;;;;;22.00;21.25;;;;;13.14;57.43;101278.69;5075608;27;45845;-78
2023/04/30 03:41:53;;;;;;;;;21.50;19.75;;;;;13.12;57.36;101275.38;5090978;27;45583;-79
2023/04/30 03:44:18;;;;;;;;;21.75;21.00;;;;;13.11;57.56;101284.16;5073597;28;48187;-77
2023/04/30 03:46:44;;;;;;;;;28.75;22.25;;;;;13.10;57.61;101282.47;5075393;27;45521;-78
2023/04/30 03:49:10;;;;;;;;;20.00;19.00;;;;;13.07;57.79;101280.88;5075420;27;45743;-78
2023/04/30 03:54:57;;;;;;;;;26.00;23.75;;;;;13.04;58.04;101281.97;5064621;28;45740;-79
2023/04/30 03:57:22;;;;;;;;;24.75;20.75;;;;;13.04;58.10;101275.84;5074258;27;45632;-75
2023/04/30 03:59:49;;;;;;;;;29.00;23.25;;;;;13.02;58.27;101283.84;5075510;27;45880;-78
2023/04/30 04:02:14;;;;;;;;;14.75;13.75;;;;;13.00;58.39;101275.25;5075450;27;45881;-78
2023/04/30 04:10:45;;;;;;;;;28.75;22.50;;;;;12.96;58.40;101273.75;5074794;28;45684;-78
2023/04/30 04:13:10;;;;;;;;;26.75;20.75;;;;;12.95;58.49;101277.34;5075080;27;45696;-80
2023/04/30 04:15:36;;;;;;;;;28.50;24.00;;;;;12.95;58.76;101285.25;5074736;27;45554;-78
2023/04/30 04:18:02;;;;;;;;;25.50;21.75;;;;;12.90;58.79;101273.38;5073955;28;45732;-78
2023/04/30 04:20:28;;;;;;;;;31.25;25.00;;;;;12.91;59.19;101275.88;5075087;28;45518;-78
2023/04/30 04:22:54;;;;;;;;;32.25;25.00;;;;;12.89;58.93;101274.31;5075669;27;45562;-79
2023/04/30 04:25:23;;;;;;;;;32.75;29.25;;;;;12.86;59.00;101280.63;5075075;27;45630;-78
2023/04/30 04:27:52;;;;;;;;;32.50;24.75;;;;;12.87;59.18;101278.81;5075382;27;46402;-79
2023/04/30 04:30:17;;;;;;;;;21.00;19.75;;;;;12.86;59.11;101290.28;5073767;28;45864;-79
2023/04/30 04:32:48;;;;;;;;;26.25;22.00;;;;;12.82;59.38;101283.56;5075090;27;45847;-79
2023/04/30 04:35:14;;;;;;;;;28.50;24.75;;;;;12.80;59.41;101281.03;5074776;27;45638;-80
2023/04/30 04:37:39;;;;;;;;;26.75;24.25;;;;;12.77;59.56;101283.88;5074989;27;46095;-78
2023/04/30 04:40:06;;;;;;;;;30.50;28.25;;;;;12.75;59.90;101284.94;5074934;27;45659;-77
2023/04/30 04:42:31;;;;;;;;;27.75;25.25;;;;;12.76;59.82;101291.88;5073418;28;45630;-79
2023/04/30 04:44:57;;;;;;;;;32.00;28.50;;;;;12.74;59.91;101286.72;5075085;27;46702;-79
2023/04/30 04:47:22;;;;;;;;;33.75;31.25;;;;;12.73;60.19;101287.69;5090167;27;47478;-79
2023/04/30 04:49:47;;;;;;;;;31.75;27.75;;;;;12.73;60.25;101290.31;5074661;27;45681;-79
2023/04/30 04:55:35;;;;;;;;;35.50;27.50;;;;;12.71;60.28;101297.47;5067636;28;45764;-78
2023/04/30 04:58:00;;;;;;;;;36.25;28.25;;;;;12.70;60.20;101289.66;5074363;28;46124;-79
2023/04/30 05:00:26;;;;;;;;;30.50;28.00;;;;;12.69;60.50;101295.88;5074082;27;45759;-78
2023/04/30 05:02:52;;;;;;;;;40.00;30.75;;;;;12.67;60.63;101293.38;5074200;27;45715;-79
2023/04/30 05:05:17;;;;;;;;;29.75;27.75;;;;;12.67;60.63;101293.38;5072426;28;46566;-79
2023/04/30 05:07:42;;;;;;;;;32.50;26.75;;;;;12.69;60.71;101294.09;5072534;28;46303;-79
2023/04/30 05:10:08;;;;;;;;;35.50;27.50;;;;;12.70;60.62;101301.03;5074160;27;45534;-79
2023/04/30 05:12:33;;;;;;;;;31.75;30.75;;;;;12.71;60.58;101301.88;5074424;27;45878;-77
2023/04/30 05:14:59;;;;;;;;;35.25;30.00;;;;;12.72;60.78;101300.94;5074417;27;45658;-76
2023/04/30 05:17:25;;;;;;;;;39.00;34.50;;;;;12.70;60.77;101306.28;5074014;27;46046;-79
2023/04/30 05:19:51;;;;;;;;;37.00;30.75;;;;;12.71;60.66;101307.13;5074086;28;45803;-78
2023/04/30 05:25:38;;;;;;;;;36.50;33.25;;;;;12.68;60.97;101313.47;5073197;28;45657;-79
2023/04/30 05:28:04;;;;;;;;;32.75;29.00;;;;;12.66;60.93;101312.72;5073777;27;45631;-79
2023/04/30 05:30:29;;;;;;;;;38.50;31.00;;;;;12.66;60.92;101311.88;5073596;27;45568;-80
2023/04/30 05:32:56;;;;;;;;;44.25;31.50;;;;;12.61;60.92;101306.94;5089292;27;45721;-79
2023/04/30 05:35:21;;;;;;;;;37.25;30.25;;;;;12.60;61.02;101311.34;5073611;27;46362;-78
2023/04/30 05:41:11;;;;;;;;;35.75;32.75;;;;;12.61;61.08;101310.41;5073149;28;45679;-76
2023/04/30 05:43:36;;;;;;;;;38.25;30.75;;;;;12.64;61.24;101319.84;5073638;27;45797;-77
2023/04/30 05:46:02;;;;;;;;;38.50;31.25;;;;;12.66;61.16;101315.34;5073347;27;46436;-78
2023/04/30 05:48:27;;;;;;;;;37.50;31.00;;;;;12.66;61.28;101311.88;5073574;28;46450;-78
2023/04/30 05:50:53;;;;;;;;;36.25;31.25;;;;;12.66;61.30;101323.22;5073193;27;45554;-79
2023/04/30 05:53:18;;;;;;;;;31.75;29.50;;;;;12.65;61.23;101318.91;5073558;27;45517;-77
2023/04/30 05:55:44;;;;;;;;;34.25;30.75;;;;;12.66;61.47;101323.22;5073075;27;45741;-78
2023/04/30 05:58:09;;;;;;;;;33.25;29.75;;;;;12.66;61.23;101323.22;5073433;27;45605;-78
2023/04/30 06:00:34;;;;;;;;;45.50;35.75;;;;;12.65;61.19;101318.06;5073427;27;45867;-77
2023/04/30 06:03:00;;;;;;;;;33.00;31.00;;;;;12.66;61.20;101317.97;5073481;28;45538;-79
2023/04/30 06:05:26;;;;;;;;;34.75;32.00;;;;;12.67;61.32;101318.81;5073167;27;46514;-77
2023/04/30 06:11:14;;;;;;;;;35.50;33.00;;;;;12.68;61.47;101317.88;5072792;28;45885;-76
2023/04/30 06:13:39;;;;;;;;;33.25;29.75;;;;;12.70;61.42;101321.22;5073538;27;46051;-78
2023/04/30 06:16:06;;;;;;;;;36.25;29.50;;;;;12.69;61.26;101317.75;5073142;27;45704;-78
2023/04/30 06:18:31;;;;;;;;;36.00;33.50;;;;;12.71;61.53;101317.66;5073085;27;45937;-77
2023/04/30 06:20:57;;;;;;;;;33.75;29.50;;;;;12.73;61.36;101323.66;5072473;27;45652;-78
2023/04/30 06:26:44;;;;;;;;;37.25;32.00;;;;;12.73;61.55;101327.13;5072731;28;46313;-78
2023/04/30 06:29:10;;;;;;;;;35.50;31.75;;;;;12.74;61.34;101323.53;5073055;27;45951;-78
2023/04/30 06:31:35;;;;;;;;;34.25;30.00;;;;;12.79;61.10;101325.88;5072816;27;45569;-79
2023/04/30 06:34:00;;;;;;;;;38.75;34.75;;;;;12.81;61.56;101326.59;5073084;27;45550;-79
2023/04/30 06:36:26;;;;;;;;;37.75;33.25;;;;;12.83;61.31;101327.31;5072731;27;45597;-77
2023/04/30 06:38:51;;;;;;;;;37.50;32.75;;;;;12.83;61.35;101328.19;5072778;27;45935;-78
2023/04/30 06:41:18;;;;;;;;;37.00;32.25;;;;;12.83;61.05;101336.06;5072703;27;45663;-77
2023/04/30 06:43:43;;;;;;;;;33.75;32.25;;;;;12.85;61.03;101335.94;5071188;28;45759;-78
2023/04/30 06:46:09;;;;;;;;;40.75;34.75;;;;;12.85;61.26;101331.53;5072442;27;46361;-77
2023/04/30 06:48:34;;;;;;;;;40.75;32.75;;;;;12.87;61.07;101331.41;5072349;27;46085;-77
2023/04/30 06:50:59;;;;;;;;;38.75;34.50;;;;;12.86;61.27;101327.09;5072600;27;45867;-78
2023/04/30 06:56:46;;;;;;;;;42.75;33.25;;;;;12.86;61.20;101324.47;5060872;28;45983;-78
2023/04/30 06:59:12;;;;;;;;;37.00;33.50;;;;;12.88;61.53;101325.22;5072337;27;45978;-79
2023/04/30 07:01:37;;;;;;;;;33.50;29.75;;;;;12.89;61.31;101324.28;5072622;27;45648;-78
2023/04/30 07:04:02;;;;;;;;;39.25;34.50;;;;;12.92;61.50;101318.78;5070921;27;45759;-78
2023/04/30 07:06:29;;;;;;;;;44.00;37.00;;;;;12.92;61.32;101322.28;5072121;27;45627;-77
2023/04/30 07:08:54;;;;;;;;;43.50;38.00;;;;;12.92;61.35;101316.16;5072405;27;45687;-78
2023/04/30 07:11:20;;;;;;;;;43.50;36.25;;;;;12.92;61.58;101314.38;5072308;28;45837;-78
2023/04/30 07:13:45;;;;;;;;;41.00;34.50;;;;;12.93;61.26;101312.59;5072507;27;45640;-80
2023/04/30 07:16:11;;;;;;;;;35.75;29.75;;;;;12.95;61.30;101313.34;5072288;27;45794;-78
2023/04/30 07:18:36;;;;;;;;;48.25;35.25;;;;;13.02;61.35;101319.84;5072508;27;45912;-78
2023/04/30 07:21:02;;;;;;;;;41.75;34.75;;;;;13.05;61.03;101317.00;5072195;27;45554;-78
2023/04/30 07:26:50;;;;;;;;;35.75;29.50;;;;;13.09;61.02;101317.63;5073453;28;46018;-79
2023/04/30 07:29:15;;;;;;;;;41.50;35.75;;;;;13.12;61.46;101314.81;5090860;27;46049;-79
2023/04/30 07:31:41;;;;;;;;;36.25;35.00;;;;;13.13;60.88;101319.97;5076690;27;45706;-79
2023/04/30 07:34:07;;;;;;;;;42.75;35.75;;;;;13.20;60.99;101323.00;5079742;27;45783;-78
2023/04/30 07:36:33;;;;;;;;;43.25;35.25;;;;;13.22;60.79;101329.84;5076802;28;45579;-80
2023/04/30 07:42:20;;;;;;;;;38.50;35.00;;;;;13.27;60.77;101337.41;5075099;28;45657;-79
2023/04/30 07:44:47;;;;;;;;;44.75;36.25;;;;;13.28;61.42;101342.56;5075924;27;45697;-78
2023/04/30 07:47:13;;;;;;;;;42.00;34.75;;;;;13.30;61.33;101340.66;5075452;28;45738;-81
2023/04/30 07:49:38;;;;;;;;;38.50;35.75;;;;;13.32;61.12;101335.31;5075394;27;46138;-80
2023/04/30 07:52:09;;;;;;;;;46.75;35.25;;;;;13.35;60.77;101338.53;5075096;27;45777;-78
2023/04/30 07:54:37;;;;;;;;;42.50;35.00;;;;;13.39;60.69;101340.00;5075420;27;45628;-80
2023/04/30 07:57:03;;;;;;;;;39.50;34.50;;;;;13.44;61.10;101337.88;5074886;27;45709;-79
2023/04/30 07:59:28;;;;;;;;;33.50;29.75;;;;;13.50;60.48;101331.34;5075173;27;46098;-80
2023/04/30 08:01:54;;;;;;;;;41.50;35.75;;;;;13.50;60.91;101333.97;5075368;27;45925;-77
2023/04/30 08:04:19;;;;;;;;;41.00;35.25;;;;;13.56;60.54;101335.31;5075200;27;45958;-77
2023/04/30 08:06:45;;;;;;;;;42.25;36.00;;;;;13.58;60.62;101333.44;5074966;27;46624;-78
2023/04/30 08:12:35;;;;;;;;;38.00;34.75;;;;;13.61;60.21;101320.88;5074594;28;45897;-79
2023/04/30 08:15:06;;;;;;;;;41.25;34.50;;;;;13.67;60.48;101332.75;5075114;27;45674;-78
2023/04/30 08:17:32;;;;;;;;;39.50;35.25;;;;;13.69;60.14;101333.50;5074952;27;45722;-80
2023/04/30 08:19:57;;;;;;;;;47.00;36.50;;;;;13.66;60.41;101318.75;5074833;27;45632;-80
2023/04/30 08:22:23;;;;;;;;;39.25;34.25;;;;;13.68;60.66;101321.28;5074229;27;45693;-78
2023/04/30 08:24:49;;;;;;;;;43.75;37.25;;;;;13.74;60.60;101310.31;5090262;27;45874;-80
2023/04/30 08:27:15;;;;;;;;;41.00;33.50;;;;;13.76;60.58;101317.16;5074731;28;45912;-79
2023/04/30 08:29:40;;;;;;;;;45.25;36.75;;;;;13.82;60.26;101316.69;5074410;27;46378;-77
2023/04/30 08:32:05;;;;;;;;;39.75;35.50;;;;;13.91;60.56;101317.81;5074677;27;45928;-80
2023/04/30 08:34:31;;;;;;;;;38.75;34.50;;;;;13.95;60.09;101313.16;5074894;27;45745;-79
2023/04/30 08:36:57;;;;;;;;;38.75;34.50;;;;;13.96;60.35;101318.31;5074480;27;45561;-76
2023/04/30 08:42:56;;;;;;;;;39.75;36.25;;;;;14.11;60.10;101313.69;5074224;28;45974;-80
2023/04/30 08:45:21;;;;;;;;;43.25;37.25;;;;;14.19;59.71;101313.97;5089889;27;45650;-79
2023/04/30 08:47:48;;;;;;;;;42.25;35.25;;;;;14.22;59.61;101314.59;5074862;28;45671;-78
2023/04/30 08:50:14;;;;;;;;;41.00;34.25;;;;;14.26;59.58;101309.91;5089699;27;47722;-78
2023/04/30 08:52:42;;;;;;;;;39.25;34.00;;;;;14.29;59.26;101299.16;5074158;27;45558;-78
2023/04/30 08:55:09;;;;;;;;;39.25;31.25;;;;;14.32;59.78;101312.09;5074335;28;45706;-78
2023/04/30 08:57:37;;;;;;;;;50.50;40.00;;;;;14.38;59.84;101301.13;5073877;28;46336;-79
2023/04/30 09:00:02;;;;;;;;;35.00;30.75;;;;;14.48;59.70;101307.38;5074112;27;45595;-79
2023/04/30 09:02:31;;;;;;;;;36.75;33.25;;;;;14.59;59.59;101302.13;5074227;28;45752;-79
2023/04/30 09:04:56;;;;;;;;;36.25;33.75;;;;;14.68;59.00;101303.22;5074307;27;45758;-79
2023/04/30 09:07:24;;;;;;;;;30.00;26.25;;;;;14.75;59.14;101296.50;5074229;27;46411;-80
2023/04/30 09:13:12;;;;;;;;;38.25;29.00;;;;;14.87;58.03;101306.09;5073696;28;45930;-79
2023/04/30 09:15:44;;;;;;;;;39.50;33.50;;;;;14.94;58.22;101301.19;5074078;27;45655;-78
2023/04/30 09:18:16;;;;;;;;;35.25;29.50;;;;;15.00;58.19;101309.47;5074040;27;46554;-79
2023/04/30 09:21:00;;;;;;;;;36.00;31.00;;;;;15.05;57.37;101302.03;5073814;27;46127;-78
2023/04/30 09:23:26;;;;;;;;;34.75;26.50;;;;;15.09;57.68;101299.97;5073578;27;45674;-78
2023/04/30 09:25:52;;;;;;;;;31.25;27.00;;;;;15.16;57.28;101295.91;5074042;27;45963;-77
2023/04/30 09:28:22;;;;;;;;;25.50;21.50;;;;;15.21;57.01;101296.38;5073883;27;45557;-80
2023/04/30 09:30:48;;;;;;;;;27.50;24.00;;;;;15.26;57.19;101296.00;5073870;28;46119;-79
2023/04/30 09:33:13;;;;;;;;;26.75;24.00;;;;;15.34;57.07;101298.88;5072082;28;45923;-79
2023/04/30 09:35:40;;;;;;;;;26.00;23.50;;;;;15.38;56.91;101295.03;5073649;27;45973;-78
2023/04/30 09:38:06;;;;;;;;;30.25;26.00;;;;;15.41;55.65;101289.50;5073641;28;45765;-78
2023/04/30 09:40:37;;;;;;;;;25.50;22.50;;;;;15.45;55.85;101293.56;5073432;28;45653;-78
2023/04/30 09:43:03;;;;;;;;;28.75;26.50;;;;;15.47;55.63;101289.00;5073287;27;45962;-79
2023/04/30 09:45:42;;;;;;;;;26.50;24.25;;;;;15.55;55.57;101299.00;5073635;28;45582;-75
2023/04/30 09:48:10;;;;;;;;;29.00;23.75;;;;;15.56;55.72;101293.56;5073481;27;45747;-77
2023/04/30 09:50:39;;;;;;;;;25.00;22.50;;;;;15.59;55.70;101289.84;5073601;27;46101;-81
2023/04/30 09:53:09;;;;;;;;;29.50;25.00;;;;;15.62;55.30;101290.44;5073175;28;45757;-76
2023/04/30 09:55:36;;;;;;;;;30.75;26.50;;;;;15.67;55.68;101290.06;5072624;27;45806;-77
2023/04/30 09:58:06;;;;;;;;;30.00;28.50;;;;;15.70;55.62;101280.09;5073399;28;46360;-75
2023/04/30 10:00:33;;;;;;;;;25.75;22.00;;;;;15.78;55.40;101282.09;5073480;27;46155;-77
2023/04/30 10:03:04;;;;;;;;;20.75;17.50;;;;;15.81;55.16;101280.06;5073024;27;45848;-77
2023/04/30 10:05:33;;;;;;;;;25.50;22.50;;;;;15.88;55.17;101275.91;5073556;28;45725;-77
2023/04/30 10:07:58;;;;;;;;;29.75;27.00;;;;;15.94;55.06;101277.22;5073328;27;45615;-75
2023/04/30 10:13:57;;;;;;;;;24.25;23.75;;;;;16.11;55.01;101271.38;5072980;28;45917;-74
2023/04/30 10:16:42;;;;;;;;;31.00;22.50;;;;;16.18;54.70;101275.19;5073171;27;45884;-75
2023/04/30 10:19:13;;;;;;;;;24.00;22.75;;;;;16.23;54.70;101273.00;5088546;27;48682;-75
2023/04/30 10:21:41;;;;;;;;;27.00;22.75;;;;;16.35;54.86;101268.47;5073096;27;46196;-75
2023/04/30 10:24:08;;;;;;;;;26.00;24.00;;;;;16.50;54.66;101268.97;5071483;28;46234;-74
2023/04/30 10:26:34;;;;;;;;;27.25;25.00;;;;;16.62;54.31;101260.88;5088684;27;45619;-74
2023/04/30 10:29:01;;;;;;;;;26.75;23.50;;;;;16.76;54.30;101257.03;5073348;27;46337;-76
2023/04/30 10:31:29;;;;;;;;;25.75;23.75;;;;;16.84;53.53;101251.91;5071638;28;47293;-77
2023/04/30 10:34:10;;;;;;;;;23.75;20.75;;;;;16.94;54.07;101255.44;5072854;27;45789;-75
2023/04/30 10:36:43;;;;;;;;;25.00;21.50;;;;;17.05;53.86;101241.25;5088860;27;45956;-78
2023/04/30 10:39:10;;;;;;;;;21.00;18.75;;;;;17.11;53.04;101235.41;5073242;28;46554;-79
2023/04/30 10:41:35;;;;;;;;;25.75;22.50;;;;;17.16;52.53;101241.16;5071685;28;47613;-78
2023/04/30 10:44:04;;;;;;;;;23.50;19.75;;;;;17.19;52.62;101240.84;5073418;27;45638;-78
2023/04/30 10:46:30;;;;;;;;;24.25;20.00;;;;;17.22;52.71;101234.47;5073272;27;45979;-79
2023/04/30 10:48:55;;;;;;;;;19.75;18.00;;;;;17.23;52.44;101234.31;5073415;28;45759;-76
2023/04/30 10:51:21;;;;;;;;;19.25;16.50;;;;;17.28;52.84;101237.38;5074041;27;45570;-77
2023/04/30 10:53:51;;;;;;;;;21.00;19.75;;;;;17.36;52.50;101242.00;5073893;27;45515;-80
2023/04/30 10:56:30;;;;;;;;;19.50;16.50;;;;;17.43;51.49;101229.91;5073268;28;45639;-78
2023/04/30 10:59:01;;;;;;;;;13.75;13.00;;;;;17.48;51.09;101228.50;5072110;28;46582;-79
2023/04/30 11:01:27;;;;;;;;;11.75;10.25;;;;;17.53;50.50;101223.63;5073781;28;46104;-79
2023/04/30 11:04:10;;;;;;;;;13.25;12.75;;;;;17.65;50.16;101229.66;5072952;27;45692;-79
2023/04/30 11:07:06;;;;;;;;;16.25;14.75;;;;;17.75;50.53;101219.91;5073547;27;45744;-80
2023/04/30 11:09:41;;;;;;;;;20.00;16.00;;;;;17.84;50.08;101231.47;5076352;28;46868;-81
2023/04/30 11:12:13;;;;;;;;;15.00;14.50;;;;;17.92;49.82;101218.34;5076007;27;45616;-80
2023/04/30 11:14:41;;;;;;;;;18.00;16.00;;;;;17.97;50.07;101216.13;5074531;28;45625;-81
2023/04/30 11:17:06;;;;;;;;;23.25;18.00;;;;;17.96;49.53;101215.28;5076591;27;45674;-79
2023/04/30 11:19:33;;;;;;;;;14.75;14.50;;;;;18.01;49.63;101214.84;5076053;27;45621;-80
2023/04/30 11:22:02;;;;;;;;;16.75;14.50;;;;;18.11;49.82;101215.66;5075970;27;46192;-80
2023/04/30 11:24:49;;;;;;;;;10.50;10.00;;;;;18.21;48.99;101215.63;5090963;27;45732;-80
2023/04/30 11:27:48;;;;;;;;;8.75;8.25;;;;;18.33;48.09;101211.84;5076446;28;45891;-78
2023/04/30 11:30:16;;;;;;;;;9.00;8.75;;;;;18.41;47.18;101207.47;5013302;28;46262;-81
2023/04/30 11:32:46;;;;;;;;;8.75;8.00;;;;;18.56;47.11;101209.72;5013819;28;45919;-79
2023/04/30 11:35:13;;;;;;;;;10.75;8.75;;;;;18.65;46.48;101203.50;5014285;28;46003;-77
2023/04/30 11:37:43;;;;;;;;;10.00;10.00;;;;;18.78;46.70;101191.59;5013643;28;45756;-78
2023/04/30 11:40:13;;;;;;;;;46.00;38.25;;;;;18.91;46.40;101193.03;5012893;28;46540;-79
2023/04/30 11:42:42;;;;;;;;;10.00;9.00;;;;;19.00;46.06;101192.97;5013047;28;45872;-80
2023/04/30 11:45:14;;;;;;;;;9.00;9.00;;;;;19.08;46.01;101192.25;4995974;28;45786;-80
2023/04/30 11:47:44;;;;;;;;;9.75;8.25;;;;;19.13;45.85;101190.81;5013215;28;45845;-78
2023/04/30 11:50:13;;;;;;;;;11.75;11.00;;;;;19.17;45.61;101180.72;5013195;28;45738;-76
2023/04/30 11:52:40;;;;;;;;;12.75;11.75;;;;;19.18;45.40;101182.38;5019156;28;46541;-79
2023/04/30 11:55:14;;;;;;;;;12.00;9.75;;;;;19.24;45.44;101187.09;5016400;28;45543;-77
2023/04/30 11:57:41;;;;;;;;;9.25;8.25;;;;;19.25;44.86;101178.97;4995810;28;45919;-79
2023/04/30 12:00:12;;;;;;;;;10.75;9.00;;;;;19.23;44.91;101175.63;5012307;28;48446;-79
2023/04/30 12:02:38;;;;;;;;;12.50;11.00;;;;;19.17;44.69;101175.41;5012395;28;45994;-78
2023/04/30 12:05:04;;;;;;;;;10.75;9.50;;;;;19.20;44.90;101173.28;5007637;28;46000;-79
2023/04/30 12:07:30;;;;;;;;;12.50;10.75;;;;;19.27;44.85;101174.34;5075592;27;45774;-78
2023/04/30 12:09:55;;;;;;;;;11.75;11.00;;;;;19.23;44.21;101172.97;5074722;27;45617;-80
2023/04/30 12:12:31;;;;;;;;;11.00;9.75;;;;;19.24;43.83;101173.81;5074907;27;45882;-77
2023/04/30 12:14:56;;;;;;;;;11.25;9.00;;;;;19.25;44.24;101167.53;5075132;27;45736;-80
2023/04/30 12:17:34;;;;;;;;;11.75;10.75;;;;;19.31;43.95;101163.41;5075134;27;45723;-78
2023/04/30 12:20:00;;;;;;;;;12.75;11.50;;;;;19.34;44.02;101168.41;5074246;28;45701;-80
2023/04/30 12:22:26;;;;;;;;;12.00;10.25;;;;;19.29;43.87;101164.41;5090050;27;48434;-80
2023/04/30 12:24:54;;;;;;;;;12.50;11.25;;;;;19.29;43.85;101174.19;5074523;27;45764;-79
2023/04/30 12:27:21;;;;;;;;;12.00;11.00;;;;;19.24;43.84;101166.69;5074897;27;45972;-78
2023/04/30 12:29:47;;;;;;;;;14.00;11.25;;;;;19.24;44.49;101161.38;5074825;27;46381;-80
2023/04/30 12:32:17;;;;;;;;;11.75;11.00;;;;;19.26;44.18;101164.72;5074511;27;46572;-78
2023/04/30 12:34:43;;;;;;;;;12.50;12.25;;;;;19.28;44.18;101168.03;5074819;27;46067;-81
2023/04/30 12:37:09;;;;;;;;;13.50;12.75;;;;;19.27;43.86;101171.69;5090515;27;45751;-80